sensor_id;sensor_type;location;lat;lon;timestamp;P1;durP1;ratioP1;P2;durP2;ratioP2
19339;SDS011;9804;52.350;6.684;2022-09-06T00:00:48;8.88;;;4.63;;
19339;SDS011;9804;52.350;6.684;2022-09-06T00:03:14;5.60;;;4.10;;
19339;SDS011;9804;52.350;6.684;2022-09-06T00:05:40;6.70;;;4.30;;
19339;SDS011;9804;52.350;6.684;2022-09-06T00:08:07;7.65;;;4.32;;
19339;SDS011;9804;52.350;6.684;2022-09-06T00:10:33;5.05;;;4.00;;
19339;SDS011;9804;52.350;6.684;2022-09-06T00:12:59;6.47;;;4.30;;
19339;SDS011;9804;52.350;6.684;2022-09-06T00:15:26;6.93;;;4.10;;
19339;SDS011;9804;52.350;6.684;2022-09-06T00:17:51;7.35;;;4.20;;
19339;SDS011;9804;52.350;6.684;2022-09-06T00:20:16;9.05;;;4.35;;
19339;SDS011;9804;52.350;6.684;2022-09-06T00:22:42;6.55;;;4.15;;
19339;SDS011;9804;52.350;6.684;2022-09-06T00:25:07;8.27;;;3.97;;
19339;SDS011;9804;52.350;6.684;2022-09-06T00:27:33;7.75;;;3.83;;
19339;SDS011;9804;52.350;6.684;2022-09-06T00:29:58;8.48;;;4.22;;
19339;SDS011;9804;52.350;6.684;2022-09-06T00:32:24;4.70;;;4.18;;
19339;SDS011;9804;52.350;6.684;2022-09-06T00:34:50;7.00;;;3.90;;
19339;SDS011;9804;52.350;6.684;2022-09-06T00:37:15;4.75;;;3.92;;
19339;SDS011;9804;52.350;6.684;2022-09-06T00:39:40;7.30;;;4.70;;
19339;SDS011;9804;52.350;6.684;2022-09-06T00:42:06;8.18;;;4.28;;
19339;SDS011;9804;52.350;6.684;2022-09-06T00:44:33;6.13;;;4.07;;
19339;SDS011;9804;52.350;6.684;2022-09-06T00:46:58;9.95;;;4.63;;
19339;SDS011;9804;52.350;6.684;2022-09-06T00:49:25;7.72;;;4.68;;
19339;SDS011;9804;52.350;6.684;2022-09-06T00:51:57;7.15;;;4.10;;
19339;SDS011;9804;52.350;6.684;2022-09-06T00:54:25;8.70;;;4.57;;
19339;SDS011;9804;52.350;6.684;2022-09-06T00:56:51;6.75;;;4.20;;
19339;SDS011;9804;52.350;6.684;2022-09-06T00:59:16;7.25;;;4.32;;
19339;SDS011;9804;52.350;6.684;2022-09-06T01:01:42;6.10;;;4.70;;
19339;SDS011;9804;52.350;6.684;2022-09-06T01:04:07;4.00;;;3.70;;
19339;SDS011;9804;52.350;6.684;2022-09-06T01:09:16;4.43;;;4.00;;
19339;SDS011;9804;52.350;6.684;2022-09-06T01:12:17;6.43;;;4.53;;
19339;SDS011;9804;52.350;6.684;2022-09-06T01:15:20;5.00;;;4.50;;
19339;SDS011;9804;52.350;6.684;2022-09-06T01:26:29;8.05;;;4.97;;
19339;SDS011;9804;52.350;6.684;2022-09-06T01:29:15;5.43;;;4.47;;
19339;SDS011;9804;52.350;6.684;2022-09-06T01:31:55;9.25;;;5.10;;
19339;SDS011;9804;52.350;6.684;2022-09-06T01:34:49;7.43;;;4.72;;
19339;SDS011;9804;52.350;6.684;2022-09-06T01:37:21;6.30;;;4.15;;
19339;SDS011;9804;52.350;6.684;2022-09-06T01:39:47;8.70;;;4.93;;
19339;SDS011;9804;52.350;6.684;2022-09-06T01:42:16;5.55;;;5.00;;
19339;SDS011;9804;52.350;6.684;2022-09-06T01:44:55;5.95;;;5.20;;
19339;SDS011;9804;52.350;6.684;2022-09-06T01:50:02;7.75;;;5.10;;
19339;SDS011;9804;52.350;6.684;2022-09-06T01:55:43;9.43;;;4.97;;
19339;SDS011;9804;52.350;6.684;2022-09-06T02:00:54;6.78;;;5.45;;
19339;SDS011;9804;52.350;6.684;2022-09-06T02:03:31;10.68;;;6.57;;
19339;SDS011;9804;52.350;6.684;2022-09-06T02:06:03;9.23;;;6.47;;
19339;SDS011;9804;52.350;6.684;2022-09-06T02:08:34;12.40;;;7.55;;
19339;SDS011;9804;52.350;6.684;2022-09-06T02:11:11;11.27;;;8.52;;
19339;SDS011;9804;52.350;6.684;2022-09-06T02:16:11;11.38;;;8.43;;
19339;SDS011;9804;52.350;6.684;2022-09-06T02:18:45;10.70;;;8.85;;
19339;SDS011;9804;52.350;6.684;2022-09-06T02:21:40;15.80;;;8.35;;
19339;SDS011;9804;52.350;6.684;2022-09-06T02:24:09;13.43;;;9.05;;
19339;SDS011;9804;52.350;6.684;2022-09-06T02:26:41;13.98;;;8.70;;
19339;SDS011;9804;52.350;6.684;2022-09-06T02:29:08;13.25;;;9.27;;
19339;SDS011;9804;52.350;6.684;2022-09-06T02:31:35;16.88;;;9.13;;
19339;SDS011;9804;52.350;6.684;2022-09-06T02:34:06;14.23;;;9.48;;
19339;SDS011;9804;52.350;6.684;2022-09-06T02:36:33;13.02;;;9.63;;
19339;SDS011;9804;52.350;6.684;2022-09-06T02:39:00;12.55;;;9.00;;
19339;SDS011;9804;52.350;6.684;2022-09-06T02:41:26;16.23;;;8.80;;
19339;SDS011;9804;52.350;6.684;2022-09-06T02:43:52;12.95;;;9.30;;
19339;SDS011;9804;52.350;6.684;2022-09-06T02:46:18;17.05;;;9.40;;
19339;SDS011;9804;52.350;6.684;2022-09-06T02:48:43;16.15;;;9.27;;
19339;SDS011;9804;52.350;6.684;2022-09-06T02:51:08;17.60;;;10.13;;
19339;SDS011;9804;52.350;6.684;2022-09-06T02:53:34;14.70;;;9.07;;
19339;SDS011;9804;52.350;6.684;2022-09-06T02:56:00;14.65;;;9.48;;
19339;SDS011;9804;52.350;6.684;2022-09-06T02:58:26;13.75;;;9.43;;
19339;SDS011;9804;52.350;6.684;2022-09-06T03:00:51;14.02;;;8.52;;
19339;SDS011;9804;52.350;6.684;2022-09-06T03:03:17;13.32;;;9.15;;
19339;SDS011;9804;52.350;6.684;2022-09-06T03:05:47;14.70;;;8.52;;
19339;SDS011;9804;52.350;6.684;2022-09-06T03:08:13;14.63;;;9.15;;
19339;SDS011;9804;52.350;6.684;2022-09-06T03:10:40;15.65;;;9.05;;
19339;SDS011;9804;52.350;6.684;2022-09-06T03:13:05;11.90;;;8.77;;
19339;SDS011;9804;52.350;6.684;2022-09-06T03:15:31;11.25;;;7.90;;
19339;SDS011;9804;52.350;6.684;2022-09-06T03:17:57;12.88;;;7.75;;
19339;SDS011;9804;52.350;6.684;2022-09-06T03:20:23;11.50;;;7.78;;
19339;SDS011;9804;52.350;6.684;2022-09-06T03:22:49;13.95;;;7.63;;
19339;SDS011;9804;52.350;6.684;2022-09-06T03:25:14;11.82;;;7.70;;
19339;SDS011;9804;52.350;6.684;2022-09-06T03:27:39;9.23;;;7.35;;
19339;SDS011;9804;52.350;6.684;2022-09-06T03:30:05;11.10;;;7.70;;
19339;SDS011;9804;52.350;6.684;2022-09-06T03:32:31;12.57;;;7.95;;
19339;SDS011;9804;52.350;6.684;2022-09-06T03:34:56;13.63;;;8.02;;
19339;SDS011;9804;52.350;6.684;2022-09-06T03:37:22;10.55;;;7.47;;
19339;SDS011;9804;52.350;6.684;2022-09-06T03:39:47;20.00;;;8.70;;
19339;SDS011;9804;52.350;6.684;2022-09-06T03:42:12;17.02;;;9.32;;
19339;SDS011;9804;52.350;6.684;2022-09-06T03:44:38;13.18;;;9.40;;
19339;SDS011;9804;52.350;6.684;2022-09-06T03:47:03;16.08;;;9.13;;
19339;SDS011;9804;52.350;6.684;2022-09-06T03:49:29;11.63;;;7.90;;
19339;SDS011;9804;52.350;6.684;2022-09-06T03:51:54;15.15;;;8.30;;
19339;SDS011;9804;52.350;6.684;2022-09-06T03:54:20;13.50;;;7.55;;
19339;SDS011;9804;52.350;6.684;2022-09-06T03:56:45;12.25;;;7.70;;
19339;SDS011;9804;52.350;6.684;2022-09-06T03:59:10;12.38;;;8.25;;
19339;SDS011;9804;52.350;6.684;2022-09-06T04:01:36;9.30;;;7.22;;
19339;SDS011;9804;52.350;6.684;2022-09-06T04:04:01;12.43;;;8.10;;
19339;SDS011;9804;52.350;6.684;2022-09-06T04:06:27;10.45;;;8.00;;
19339;SDS011;9804;52.350;6.684;2022-09-06T04:08:53;11.50;;;7.93;;
19339;SDS011;9804;52.350;6.684;2022-09-06T04:11:18;12.85;;;8.65;;
19339;SDS011;9804;52.350;6.684;2022-09-06T04:13:44;13.77;;;8.65;;
19339;SDS011;9804;52.350;6.684;2022-09-06T04:16:09;12.27;;;8.93;;
19339;SDS011;9804;52.350;6.684;2022-09-06T04:18:34;15.48;;;9.77;;
19339;SDS011;9804;52.350;6.684;2022-09-06T04:21:00;11.88;;;8.82;;
19339;SDS011;9804;52.350;6.684;2022-09-06T04:23:27;11.75;;;9.25;;
19339;SDS011;9804;52.350;6.684;2022-09-06T04:25:53;19.13;;;9.00;;
19339;SDS011;9804;52.350;6.684;2022-09-06T04:28:20;11.13;;;8.55;;
19339;SDS011;9804;52.350;6.684;2022-09-06T04:30:53;10.52;;;9.43;;
19339;SDS011;9804;52.350;6.684;2022-09-06T04:33:23;16.20;;;10.57;;
19339;SDS011;9804;52.350;6.684;2022-09-06T04:35:52;16.60;;;10.55;;
19339;SDS011;9804;52.350;6.684;2022-09-06T04:38:20;16.33;;;10.43;;
19339;SDS011;9804;52.350;6.684;2022-09-06T04:40:46;16.88;;;11.63;;
19339;SDS011;9804;52.350;6.684;2022-09-06T04:43:12;18.80;;;12.65;;
19339;SDS011;9804;52.350;6.684;2022-09-06T04:45:37;18.52;;;13.73;;
19339;SDS011;9804;52.350;6.684;2022-09-06T04:48:02;17.05;;;14.35;;
19339;SDS011;9804;52.350;6.684;2022-09-06T04:50:28;17.25;;;14.80;;
19339;SDS011;9804;52.350;6.684;2022-09-06T04:52:53;17.75;;;14.45;;
19339;SDS011;9804;52.350;6.684;2022-09-06T04:55:19;19.02;;;15.82;;
19339;SDS011;9804;52.350;6.684;2022-09-06T04:57:44;21.30;;;15.25;;
19339;SDS011;9804;52.350;6.684;2022-09-06T05:00:09;18.13;;;16.23;;
19339;SDS011;9804;52.350;6.684;2022-09-06T05:02:35;20.92;;;16.70;;
19339;SDS011;9804;52.350;6.684;2022-09-06T05:05:00;21.92;;;17.63;;
19339;SDS011;9804;52.350;6.684;2022-09-06T05:07:26;24.60;;;17.33;;
19339;SDS011;9804;52.350;6.684;2022-09-06T05:09:51;21.17;;;17.25;;
19339;SDS011;9804;52.350;6.684;2022-09-06T05:12:16;21.58;;;17.17;;
19339;SDS011;9804;52.350;6.684;2022-09-06T05:14:42;17.17;;;15.00;;
19339;SDS011;9804;52.350;6.684;2022-09-06T05:17:07;21.80;;;17.52;;
19339;SDS011;9804;52.350;6.684;2022-09-06T05:19:32;20.40;;;18.05;;
19339;SDS011;9804;52.350;6.684;2022-09-06T05:21:58;21.67;;;17.75;;
19339;SDS011;9804;52.350;6.684;2022-09-06T05:24:23;20.52;;;17.55;;
19339;SDS011;9804;52.350;6.684;2022-09-06T05:26:48;21.67;;;18.25;;
19339;SDS011;9804;52.350;6.684;2022-09-06T05:29:14;20.15;;;17.90;;
19339;SDS011;9804;52.350;6.684;2022-09-06T05:31:39;20.40;;;17.58;;
19339;SDS011;9804;52.350;6.684;2022-09-06T05:34:04;19.63;;;17.30;;
19339;SDS011;9804;52.350;6.684;2022-09-06T05:36:30;20.35;;;18.20;;
19339;SDS011;9804;52.350;6.684;2022-09-06T05:38:56;22.13;;;18.90;;
19339;SDS011;9804;52.350;6.684;2022-09-06T05:41:22;24.45;;;20.50;;
19339;SDS011;9804;52.350;6.684;2022-09-06T05:43:48;25.38;;;20.92;;
19339;SDS011;9804;52.350;6.684;2022-09-06T05:46:14;24.15;;;19.63;;
19339;SDS011;9804;52.350;6.684;2022-09-06T05:48:40;20.95;;;18.73;;
19339;SDS011;9804;52.350;6.684;2022-09-06T05:51:07;22.13;;;19.80;;
19339;SDS011;9804;52.350;6.684;2022-09-06T05:53:37;22.90;;;20.17;;
19339;SDS011;9804;52.350;6.684;2022-09-06T05:56:04;22.92;;;20.25;;
19339;SDS011;9804;52.350;6.684;2022-09-06T05:58:31;23.17;;;20.60;;
19339;SDS011;9804;52.350;6.684;2022-09-06T06:03:55;25.13;;;20.83;;
19339;SDS011;9804;52.350;6.684;2022-09-06T06:06:22;23.27;;;20.95;;
19339;SDS011;9804;52.350;6.684;2022-09-06T06:08:48;22.85;;;20.52;;
19339;SDS011;9804;52.350;6.684;2022-09-06T06:11:14;22.75;;;20.27;;
19339;SDS011;9804;52.350;6.684;2022-09-06T06:13:40;24.20;;;21.67;;
19339;SDS011;9804;52.350;6.684;2022-09-06T06:16:07;23.33;;;20.88;;
19339;SDS011;9804;52.350;6.684;2022-09-06T06:18:34;24.10;;;21.60;;
19339;SDS011;9804;52.350;6.684;2022-09-06T06:21:09;25.83;;;20.67;;
19339;SDS011;9804;52.350;6.684;2022-09-06T06:23:39;23.45;;;20.95;;
19339;SDS011;9804;52.350;6.684;2022-09-06T06:26:06;23.40;;;20.15;;
19339;SDS011;9804;52.350;6.684;2022-09-06T06:28:33;23.02;;;20.48;;
19339;SDS011;9804;52.350;6.684;2022-09-06T06:30:59;21.85;;;19.67;;
19339;SDS011;9804;52.350;6.684;2022-09-06T06:33:25;23.13;;;20.73;;
19339;SDS011;9804;52.350;6.684;2022-09-06T06:36:05;23.17;;;20.90;;
19339;SDS011;9804;52.350;6.684;2022-09-06T06:38:33;23.77;;;21.35;;
19339;SDS011;9804;52.350;6.684;2022-09-06T06:40:59;26.75;;;19.85;;
19339;SDS011;9804;52.350;6.684;2022-09-06T06:43:25;19.95;;;17.80;;
19339;SDS011;9804;52.350;6.684;2022-09-06T06:45:51;18.38;;;16.48;;
19339;SDS011;9804;52.350;6.684;2022-09-06T06:48:17;18.58;;;13.93;;
19339;SDS011;9804;52.350;6.684;2022-09-06T06:50:42;15.18;;;13.77;;
19339;SDS011;9804;52.350;6.684;2022-09-06T06:53:08;15.20;;;13.63;;
19339;SDS011;9804;52.350;6.684;2022-09-06T06:55:33;16.48;;;14.10;;
19339;SDS011;9804;52.350;6.684;2022-09-06T06:57:59;16.38;;;14.68;;
19339;SDS011;9804;52.350;6.684;2022-09-06T07:00:25;15.23;;;13.38;;
19339;SDS011;9804;52.350;6.684;2022-09-06T07:02:50;14.73;;;13.30;;
19339;SDS011;9804;52.350;6.684;2022-09-06T07:05:17;16.45;;;13.75;;
19339;SDS011;9804;52.350;6.684;2022-09-06T07:07:42;14.07;;;12.38;;
19339;SDS011;9804;52.350;6.684;2022-09-06T07:10:07;14.25;;;12.82;;
19339;SDS011;9804;52.350;6.684;2022-09-06T07:12:33;14.63;;;13.10;;
19339;SDS011;9804;52.350;6.684;2022-09-06T07:14:58;18.75;;;12.90;;
19339;SDS011;9804;52.350;6.684;2022-09-06T07:17:24;16.70;;;14.90;;
19339;SDS011;9804;52.350;6.684;2022-09-06T07:19:49;17.85;;;14.65;;
19339;SDS011;9804;52.350;6.684;2022-09-06T07:22:14;17.05;;;15.20;;
19339;SDS011;9804;52.350;6.684;2022-09-06T07:24:40;17.27;;;15.63;;
19339;SDS011;9804;52.350;6.684;2022-09-06T07:27:05;16.55;;;14.75;;
19339;SDS011;9804;52.350;6.684;2022-09-06T07:29:31;15.57;;;13.77;;
19339;SDS011;9804;52.350;6.684;2022-09-06T07:31:56;16.05;;;14.35;;
19339;SDS011;9804;52.350;6.684;2022-09-06T07:34:21;15.52;;;13.90;;
19339;SDS011;9804;52.350;6.684;2022-09-06T07:36:52;14.13;;;12.75;;
19339;SDS011;9804;52.350;6.684;2022-09-06T07:39:20;13.88;;;12.52;;
19339;SDS011;9804;52.350;6.684;2022-09-06T07:41:46;13.52;;;12.13;;
19339;SDS011;9804;52.350;6.684;2022-09-06T07:44:12;19.00;;;12.65;;
19339;SDS011;9804;52.350;6.684;2022-09-06T07:46:37;14.38;;;12.70;;
19339;SDS011;9804;52.350;6.684;2022-09-06T07:49:03;16.63;;;12.35;;
19339;SDS011;9804;52.350;6.684;2022-09-06T07:51:29;13.75;;;12.27;;
19339;SDS011;9804;52.350;6.684;2022-09-06T07:53:55;15.02;;;12.63;;
19339;SDS011;9804;52.350;6.684;2022-09-06T07:56:21;16.13;;;14.10;;
19339;SDS011;9804;52.350;6.684;2022-09-06T07:58:47;18.80;;;15.13;;
19339;SDS011;9804;52.350;6.684;2022-09-06T08:01:33;18.02;;;15.32;;
19339;SDS011;9804;52.350;6.684;2022-09-06T08:04:03;19.13;;;15.65;;
19339;SDS011;9804;52.350;6.684;2022-09-06T08:06:30;16.30;;;14.57;;
19339;SDS011;9804;52.350;6.684;2022-09-06T08:08:58;17.30;;;14.23;;
19339;SDS011;9804;52.350;6.684;2022-09-06T08:11:25;15.73;;;12.30;;
19339;SDS011;9804;52.350;6.684;2022-09-06T08:13:52;14.43;;;12.52;;
19339;SDS011;9804;52.350;6.684;2022-09-06T08:16:19;13.57;;;12.18;;
19339;SDS011;9804;52.350;6.684;2022-09-06T08:18:52;16.17;;;11.90;;
19339;SDS011;9804;52.350;6.684;2022-09-06T08:21:19;15.13;;;11.55;;
19339;SDS011;9804;52.350;6.684;2022-09-06T08:23:48;15.43;;;11.73;;
19339;SDS011;9804;52.350;6.684;2022-09-06T08:26:15;14.48;;;11.18;;
19339;SDS011;9804;52.350;6.684;2022-09-06T08:28:41;12.75;;;10.85;;
19339;SDS011;9804;52.350;6.684;2022-09-06T08:31:08;10.52;;;9.15;;
19339;SDS011;9804;52.350;6.684;2022-09-06T08:33:36;13.80;;;11.85;;
19339;SDS011;9804;52.350;6.684;2022-09-06T08:36:03;12.32;;;11.23;;
19339;SDS011;9804;52.350;6.684;2022-09-06T08:38:29;11.63;;;10.43;;
19339;SDS011;9804;52.350;6.684;2022-09-06T08:41:04;13.25;;;10.30;;
19339;SDS011;9804;52.350;6.684;2022-09-06T08:43:31;11.55;;;10.38;;
19339;SDS011;9804;52.350;6.684;2022-09-06T08:45:57;13.27;;;10.10;;
19339;SDS011;9804;52.350;6.684;2022-09-06T08:48:23;10.32;;;9.32;;
19339;SDS011;9804;52.350;6.684;2022-09-06T08:50:57;11.20;;;10.10;;
19339;SDS011;9804;52.350;6.684;2022-09-06T08:53:56;11.63;;;10.43;;
19339;SDS011;9804;52.350;6.684;2022-09-06T08:56:33;11.18;;;8.75;;
19339;SDS011;9804;52.350;6.684;2022-09-06T08:59:10;13.82;;;10.00;;
19339;SDS011;9804;52.350;6.684;2022-09-06T09:01:43;10.20;;;8.80;;
19339;SDS011;9804;52.350;6.684;2022-09-06T09:04:28;10.48;;;9.23;;
19339;SDS011;9804;52.350;6.684;2022-09-06T09:06:57;12.45;;;8.68;;
19339;SDS011;9804;52.350;6.684;2022-09-06T09:09:26;9.27;;;8.35;;
19339;SDS011;9804;52.350;6.684;2022-09-06T09:11:55;11.32;;;7.97;;
19339;SDS011;9804;52.350;6.684;2022-09-06T09:14:24;11.30;;;8.63;;
19339;SDS011;9804;52.350;6.684;2022-09-06T09:16:54;9.50;;;7.88;;
19339;SDS011;9804;52.350;6.684;2022-09-06T09:19:23;9.88;;;8.70;;
19339;SDS011;9804;52.350;6.684;2022-09-06T09:21:48;13.82;;;8.23;;
19339;SDS011;9804;52.350;6.684;2022-09-06T09:24:14;11.88;;;8.60;;
19339;SDS011;9804;52.350;6.684;2022-09-06T09:26:56;9.65;;;7.40;;
19339;SDS011;9804;52.350;6.684;2022-09-06T09:29:27;10.57;;;8.05;;
19339;SDS011;9804;52.350;6.684;2022-09-06T09:31:53;10.02;;;8.20;;
19339;SDS011;9804;52.350;6.684;2022-09-06T09:34:35;10.27;;;8.00;;
19339;SDS011;9804;52.350;6.684;2022-09-06T09:37:10;11.73;;;9.15;;
19339;SDS011;9804;52.350;6.684;2022-09-06T09:39:36;11.30;;;8.63;;
19339;SDS011;9804;52.350;6.684;2022-09-06T09:42:03;7.90;;;6.65;;
19339;SDS011;9804;52.350;6.684;2022-09-06T09:44:29;8.82;;;7.93;;
19339;SDS011;9804;52.350;6.684;2022-09-06T09:46:54;9.18;;;7.45;;
19339;SDS011;9804;52.350;6.684;2022-09-06T09:52:10;11.18;;;9.02;;
19339;SDS011;9804;52.350;6.684;2022-09-06T09:54:37;8.75;;;7.45;;
19339;SDS011;9804;52.350;6.684;2022-09-06T09:57:08;10.25;;;6.60;;
19339;SDS011;9804;52.350;6.684;2022-09-06T10:02:00;6.70;;;4.90;;
19339;SDS011;9804;52.350;6.684;2022-09-06T10:04:44;7.20;;;4.38;;
19339;SDS011;9804;52.350;6.684;2022-09-06T10:09:47;5.82;;;4.70;;
19339;SDS011;9804;52.350;6.684;2022-09-06T10:12:37;6.25;;;4.88;;
19339;SDS011;9804;52.350;6.684;2022-09-06T10:15:04;8.57;;;5.75;;
19339;SDS011;9804;52.350;6.684;2022-09-06T10:17:35;6.03;;;4.78;;
19339;SDS011;9804;52.350;6.684;2022-09-06T10:20:11;7.20;;;4.63;;
19339;SDS011;9804;52.350;6.684;2022-09-06T10:22:46;8.20;;;5.78;;
19339;SDS011;9804;52.350;6.684;2022-09-06T10:30:59;10.13;;;5.03;;
19339;SDS011;9804;52.350;6.684;2022-09-06T10:33:45;7.15;;;5.35;;
19339;SDS011;9804;52.350;6.684;2022-09-06T10:36:18;6.93;;;4.50;;
19339;SDS011;9804;52.350;6.684;2022-09-06T10:39:03;6.22;;;4.15;;
19339;SDS011;9804;52.350;6.684;2022-09-06T10:41:52;5.78;;;4.18;;
19339;SDS011;9804;52.350;6.684;2022-09-06T10:47:15;6.10;;;4.05;;
19339;SDS011;9804;52.350;6.684;2022-09-06T10:49:43;3.58;;;3.20;;
19339;SDS011;9804;52.350;6.684;2022-09-06T10:52:14;6.68;;;3.50;;
19339;SDS011;9804;52.350;6.684;2022-09-06T10:54:45;3.25;;;2.92;;
19339;SDS011;9804;52.350;6.684;2022-09-06T11:02:37;3.50;;;3.20;;
19339;SDS011;9804;52.350;6.684;2022-09-06T11:05:12;3.60;;;3.03;;
19339;SDS011;9804;52.350;6.684;2022-09-06T11:07:45;4.70;;;3.00;;
19339;SDS011;9804;52.350;6.684;2022-09-06T11:10:17;5.10;;;3.03;;
19339;SDS011;9804;52.350;6.684;2022-09-06T11:12:49;13.10;;;3.42;;
19339;SDS011;9804;52.350;6.684;2022-09-06T11:15:28;8.80;;;3.15;;
19339;SDS011;9804;52.350;6.684;2022-09-06T11:18:07;7.22;;;3.30;;
19339;SDS011;9804;52.350;6.684;2022-09-06T11:20:51;4.75;;;3.20;;
19339;SDS011;9804;52.350;6.684;2022-09-06T11:26:29;5.75;;;2.97;;
19339;SDS011;9804;52.350;6.684;2022-09-06T11:29:05;3.15;;;2.70;;
19339;SDS011;9804;52.350;6.684;2022-09-06T11:31:47;5.90;;;3.30;;
19339;SDS011;9804;52.350;6.684;2022-09-06T11:34:21;4.30;;;2.90;;
19339;SDS011;9804;52.350;6.684;2022-09-06T11:36:48;4.88;;;3.40;;
19339;SDS011;9804;52.350;6.684;2022-09-06T11:39:41;5.38;;;3.22;;
19339;SDS011;9804;52.350;6.684;2022-09-06T11:42:07;4.60;;;3.20;;
19339;SDS011;9804;52.350;6.684;2022-09-06T11:55:35;6.05;;;3.38;;
19339;SDS011;9804;52.350;6.684;2022-09-06T11:58:03;3.63;;;2.88;;
19339;SDS011;9804;52.350;6.684;2022-09-06T12:00:33;6.55;;;3.50;;
19339;SDS011;9804;52.350;6.684;2022-09-06T12:02:59;4.93;;;2.60;;
19339;SDS011;9804;52.350;6.684;2022-09-06T12:05:29;3.05;;;2.67;;
19339;SDS011;9804;52.350;6.684;2022-09-06T12:10:56;4.35;;;2.80;;
19339;SDS011;9804;52.350;6.684;2022-09-06T12:13:46;2.70;;;2.50;;
19339;SDS011;9804;52.350;6.684;2022-09-06T12:16:17;3.50;;;2.80;;
19339;SDS011;9804;52.350;6.684;2022-09-06T12:24:04;3.75;;;2.70;;
19339;SDS011;9804;52.350;6.684;2022-09-06T12:26:49;5.93;;;2.65;;
19339;SDS011;9804;52.350;6.684;2022-09-06T12:29:25;5.72;;;3.05;;
19339;SDS011;9804;52.350;6.684;2022-09-06T12:31:58;4.72;;;2.47;;
19339;SDS011;9804;52.350;6.684;2022-09-06T12:34:27;3.10;;;2.47;;
19339;SDS011;9804;52.350;6.684;2022-09-06T12:39:28;5.32;;;2.30;;
19339;SDS011;9804;52.350;6.684;2022-09-06T12:42:04;2.85;;;2.40;;
19339;SDS011;9804;52.350;6.684;2022-09-06T12:47:13;3.08;;;2.40;;
19339;SDS011;9804;52.350;6.684;2022-09-06T12:49:45;6.53;;;2.42;;
19339;SDS011;9804;52.350;6.684;2022-09-06T12:52:12;4.13;;;2.40;;
19339;SDS011;9804;52.350;6.684;2022-09-06T12:54:46;5.03;;;2.42;;
19339;SDS011;9804;52.350;6.684;2022-09-06T12:57:22;6.90;;;2.40;;
19339;SDS011;9804;52.350;6.684;2022-09-06T12:59:50;3.28;;;2.22;;
19339;SDS011;9804;52.350;6.684;2022-09-06T13:02:22;3.50;;;2.17;;
19339;SDS011;9804;52.350;6.684;2022-09-06T13:05:09;5.13;;;2.28;;
19339;SDS011;9804;52.350;6.684;2022-09-06T13:07:39;4.20;;;2.28;;
19339;SDS011;9804;52.350;6.684;2022-09-06T13:10:08;4.88;;;2.22;;
19339;SDS011;9804;52.350;6.684;2022-09-06T13:12:38;4.70;;;2.17;;
19339;SDS011;9804;52.350;6.684;2022-09-06T13:15:08;2.00;;;1.60;;
19339;SDS011;9804;52.350;6.684;2022-09-06T13:17:37;2.17;;;1.67;;
19339;SDS011;9804;52.350;6.684;2022-09-06T13:20:13;2.00;;;1.58;;
19339;SDS011;9804;52.350;6.684;2022-09-06T13:22:47;4.95;;;2.00;;
19339;SDS011;9804;52.350;6.684;2022-09-06T13:25:16;2.85;;;2.03;;
19339;SDS011;9804;52.350;6.684;2022-09-06T13:27:48;9.35;;;1.98;;
19339;SDS011;9804;52.350;6.684;2022-09-06T13:30:28;3.67;;;2.15;;
19339;SDS011;9804;52.350;6.684;2022-09-06T13:32:58;6.90;;;2.35;;
19339;SDS011;9804;52.350;6.684;2022-09-06T13:35:26;2.33;;;1.60;;
19339;SDS011;9804;52.350;6.684;2022-09-06T13:40:44;4.47;;;2.08;;
19339;SDS011;9804;52.350;6.684;2022-09-06T13:43:10;6.07;;;2.30;;
19339;SDS011;9804;52.350;6.684;2022-09-06T13:45:37;8.30;;;2.10;;
19339;SDS011;9804;52.350;6.684;2022-09-06T13:48:03;5.80;;;2.22;;
19339;SDS011;9804;52.350;6.684;2022-09-06T13:50:29;6.65;;;2.40;;
19339;SDS011;9804;52.350;6.684;2022-09-06T13:52:54;8.07;;;2.30;;
19339;SDS011;9804;52.350;6.684;2022-09-06T13:55:20;6.15;;;2.30;;
19339;SDS011;9804;52.350;6.684;2022-09-06T13:57:48;9.65;;;2.30;;
19339;SDS011;9804;52.350;6.684;2022-09-06T14:00:14;4.80;;;1.90;;
19339;SDS011;9804;52.350;6.684;2022-09-06T14:02:41;4.35;;;2.05;;
19339;SDS011;9804;52.350;6.684;2022-09-06T14:05:07;4.05;;;2.10;;
19339;SDS011;9804;52.350;6.684;2022-09-06T14:07:32;3.08;;;1.95;;
19339;SDS011;9804;52.350;6.684;2022-09-06T14:09:58;3.40;;;1.80;;
19339;SDS011;9804;52.350;6.684;2022-09-06T14:12:25;4.57;;;1.90;;
19339;SDS011;9804;52.350;6.684;2022-09-06T14:14:51;2.78;;;1.67;;
19339;SDS011;9804;52.350;6.684;2022-09-06T14:17:17;4.78;;;2.03;;
19339;SDS011;9804;52.350;6.684;2022-09-06T14:19:42;4.40;;;2.05;;
19339;SDS011;9804;52.350;6.684;2022-09-06T14:22:07;2.78;;;1.88;;
19339;SDS011;9804;52.350;6.684;2022-09-06T14:24:33;3.00;;;1.90;;
19339;SDS011;9804;52.350;6.684;2022-09-06T14:26:58;4.53;;;2.00;;
19339;SDS011;9804;52.350;6.684;2022-09-06T14:29:23;5.72;;;2.10;;
19339;SDS011;9804;52.350;6.684;2022-09-06T14:31:49;3.75;;;1.88;;
19339;SDS011;9804;52.350;6.684;2022-09-06T14:34:14;2.83;;;1.77;;
19339;SDS011;9804;52.350;6.684;2022-09-06T14:36:40;4.88;;;1.77;;
19339;SDS011;9804;52.350;6.684;2022-09-06T14:39:05;6.90;;;1.90;;
19339;SDS011;9804;52.350;6.684;2022-09-06T14:41:30;1.65;;;1.50;;
19339;SDS011;9804;52.350;6.684;2022-09-06T14:43:56;2.72;;;1.65;;
19339;SDS011;9804;52.350;6.684;2022-09-06T14:46:23;3.08;;;1.80;;
19339;SDS011;9804;52.350;6.684;2022-09-06T14:49:06;5.63;;;1.80;;
19339;SDS011;9804;52.350;6.684;2022-09-06T14:51:34;2.92;;;1.65;;
19339;SDS011;9804;52.350;6.684;2022-09-06T14:54:02;3.75;;;2.05;;
19339;SDS011;9804;52.350;6.684;2022-09-06T14:56:29;4.25;;;1.67;;
19339;SDS011;9804;52.350;6.684;2022-09-06T14:58:55;3.70;;;1.60;;
19339;SDS011;9804;52.350;6.684;2022-09-06T15:01:22;5.32;;;1.80;;
19339;SDS011;9804;52.350;6.684;2022-09-06T15:03:53;3.30;;;1.83;;
19339;SDS011;9804;52.350;6.684;2022-09-06T15:06:21;3.67;;;1.63;;
19339;SDS011;9804;52.350;6.684;2022-09-06T15:08:48;5.18;;;2.05;;
19339;SDS011;9804;52.350;6.684;2022-09-06T15:11:14;2.42;;;1.73;;
19339;SDS011;9804;52.350;6.684;2022-09-06T15:13:51;6.78;;;2.00;;
19339;SDS011;9804;52.350;6.684;2022-09-06T15:16:16;7.13;;;1.85;;
19339;SDS011;9804;52.350;6.684;2022-09-06T15:18:41;2.92;;;1.85;;
19339;SDS011;9804;52.350;6.684;2022-09-06T15:21:07;3.20;;;1.63;;
19339;SDS011;9804;52.350;6.684;2022-09-06T15:23:36;2.75;;;1.83;;
19339;SDS011;9804;52.350;6.684;2022-09-06T15:26:02;4.63;;;1.45;;
19339;SDS011;9804;52.350;6.684;2022-09-06T15:28:32;8.07;;;1.98;;
19339;SDS011;9804;52.350;6.684;2022-09-06T15:30:58;5.22;;;1.73;;
19339;SDS011;9804;52.350;6.684;2022-09-06T15:33:27;4.15;;;1.50;;
19339;SDS011;9804;52.350;6.684;2022-09-06T15:35:53;1.95;;;1.55;;
19339;SDS011;9804;52.350;6.684;2022-09-06T15:38:19;4.45;;;2.00;;
19339;SDS011;9804;52.350;6.684;2022-09-06T15:40:44;3.83;;;1.40;;
19339;SDS011;9804;52.350;6.684;2022-09-06T15:43:09;3.47;;;1.70;;
19339;SDS011;9804;52.350;6.684;2022-09-06T15:45:44;8.02;;;1.98;;
19339;SDS011;9804;52.350;6.684;2022-09-06T15:48:11;2.88;;;1.63;;
19339;SDS011;9804;52.350;6.684;2022-09-06T15:50:38;2.75;;;1.45;;
19339;SDS011;9804;52.350;6.684;2022-09-06T15:53:04;4.30;;;1.65;;
19339;SDS011;9804;52.350;6.684;2022-09-06T15:55:30;5.78;;;2.03;;
19339;SDS011;9804;52.350;6.684;2022-09-06T15:58:14;4.15;;;2.10;;
19339;SDS011;9804;52.350;6.684;2022-09-06T16:00:39;2.45;;;1.73;;
19339;SDS011;9804;52.350;6.684;2022-09-06T16:03:04;3.45;;;1.80;;
19339;SDS011;9804;52.350;6.684;2022-09-06T16:05:32;3.25;;;1.70;;
19339;SDS011;9804;52.350;6.684;2022-09-06T16:07:58;4.30;;;1.83;;
19339;SDS011;9804;52.350;6.684;2022-09-06T16:10:24;1.95;;;1.67;;
19339;SDS011;9804;52.350;6.684;2022-09-06T16:12:50;2.05;;;1.58;;
19339;SDS011;9804;52.350;6.684;2022-09-06T16:15:16;4.00;;;1.63;;
19339;SDS011;9804;52.350;6.684;2022-09-06T16:17:42;3.60;;;1.60;;